createdAt,value
2023-02-22T00:00:22.929Z,6.38
2023-02-22T00:02:51.832Z,6.42
2023-02-22T00:05:19.878Z,6.46
2023-02-22T00:07:50.246Z,6.31
2023-02-22T00:10:18.271Z,6.03
2023-02-22T00:12:45.685Z,5.97
2023-02-22T00:15:14.890Z,5.97
2023-02-22T00:17:42.537Z,5.95
2023-02-22T00:20:11.015Z,5.90
2023-02-22T00:22:38.128Z,5.95
2023-02-22T00:25:07.003Z,6.07
2023-02-22T00:27:33.846Z,6.18
2023-02-22T00:30:00.840Z,6.27
2023-02-22T00:32:27.987Z,6.27
2023-02-22T00:34:55.152Z,6.16
2023-02-22T00:37:25.006Z,5.85
2023-02-22T00:39:52.075Z,5.46
2023-02-22T00:42:20.467Z,5.29
2023-02-22T00:44:47.301Z,5.30
2023-02-22T00:47:14.275Z,5.37
2023-02-22T00:49:41.556Z,5.47
2023-02-22T00:52:09.901Z,5.64
2023-02-22T00:54:36.788Z,5.80
2023-02-22T00:57:04.084Z,5.92
2023-02-22T00:59:32.334Z,6.04
2023-02-22T01:01:59.301Z,6.14
2023-02-22T01:04:26.626Z,5.99
2023-02-22T01:06:53.593Z,6.04
2023-02-22T01:09:20.543Z,6.08
2023-02-22T01:11:47.873Z,6.10
2023-02-22T01:14:15.364Z,6.10
2023-02-22T01:16:43.745Z,6.13
2023-02-22T01:19:10.591Z,6.15
2023-02-22T01:21:39.297Z,5.94
2023-02-22T01:24:07.128Z,5.54
2023-02-22T01:26:34.362Z,5.50
2023-02-22T01:29:01.366Z,5.59
2023-02-22T01:31:30.165Z,5.66
2023-02-22T01:33:59.824Z,5.71
2023-02-22T01:36:26.691Z,5.80
2023-02-22T01:38:53.618Z,5.85
2023-02-22T01:41:20.881Z,5.92
2023-02-22T01:43:47.950Z,5.94
2023-02-22T01:46:24.888Z,5.96
2023-02-22T01:48:58.889Z,5.96
2023-02-22T01:51:36.436Z,5.95
2023-02-22T01:54:13.070Z,5.94
2023-02-22T01:56:48.474Z,5.95
2023-02-22T01:59:15.290Z,5.92
2023-02-22T02:01:43.046Z,5.88
2023-02-22T02:04:16.496Z,5.87
2023-02-22T02:06:47.035Z,5.89
2023-02-22T02:09:24.634Z,5.91
2023-02-22T02:11:51.776Z,5.89
2023-02-22T02:14:21.732Z,5.83
2023-02-22T02:16:52.063Z,5.82
2023-02-22T02:19:45.587Z,5.75
2023-02-22T02:22:39.995Z,5.75
2023-02-22T02:25:40.562Z,5.73
2023-02-22T02:28:54.572Z,5.72
2023-02-22T02:32:08.873Z,5.70
2023-02-22T02:34:55.081Z,5.71
2023-02-22T02:37:34.866Z,5.68
2023-02-22T02:40:20.846Z,5.63
2023-02-22T02:42:58.284Z,5.60
2023-02-22T02:45:35.830Z,5.60
2023-02-22T02:48:08.903Z,5.60
2023-02-22T02:50:46.856Z,5.57
2023-02-22T02:53:20.643Z,5.54
2023-02-22T02:55:47.808Z,5.53
2023-02-22T02:58:21.515Z,5.56
2023-02-22T03:00:54.450Z,5.56
2023-02-22T03:03:50.969Z,5.49
2023-02-22T03:06:52.349Z,5.50
2023-02-22T03:09:38.416Z,5.49
2023-02-22T03:12:24.491Z,5.44
2023-02-22T03:15:08.264Z,5.41
2023-02-22T03:17:50.929Z,5.38
2023-02-22T03:20:28.891Z,5.31
2023-02-22T03:23:04.377Z,5.27
2023-02-22T03:25:38.754Z,5.24
2023-02-22T03:28:12.676Z,5.27
2023-02-22T03:30:48.072Z,5.21
2023-02-22T03:33:23.949Z,5.21
2023-02-22T03:35:59.439Z,5.21
2023-02-22T03:38:33.298Z,5.24
2023-02-22T03:41:04.318Z,5.22
2023-02-22T03:43:38.685Z,5.26
2023-02-22T03:46:14.380Z,5.26
2023-02-22T03:48:51.841Z,5.20
2023-02-22T03:51:19.218Z,5.19
2023-02-22T03:53:52.068Z,5.20
2023-02-22T03:56:30.145Z,5.19
2023-02-22T03:58:57.139Z,5.23
2023-02-22T04:01:24.108Z,5.24
2023-02-22T04:03:52.366Z,5.26
2023-02-22T04:06:19.743Z,5.25
2023-02-22T04:08:58.560Z,5.19
2023-02-22T04:11:25.776Z,5.17
2023-02-22T04:13:52.720Z,5.15
2023-02-22T04:16:19.976Z,5.13
2023-02-22T04:18:47.403Z,5.10
2023-02-22T04:21:18.674Z,5.09
2023-02-22T04:23:47.586Z,5.09
2023-02-22T04:26:16.737Z,5.11
2023-02-22T04:28:48.192Z,5.10
2023-02-22T04:31:19.546Z,5.06
2023-02-22T04:33:47.323Z,5.06
2023-02-22T04:36:18.179Z,5.01
2023-02-22T04:38:45.785Z,5.02
2023-02-22T04:41:13.156Z,5.04
2023-02-22T04:43:41.481Z,5.00
2023-02-22T04:46:16.346Z,5.00
2023-02-22T04:48:44.745Z,4.92
2023-02-22T04:51:13.751Z,4.89
2023-02-22T04:53:50.470Z,4.73
2023-02-22T04:56:18.074Z,4.39
2023-02-22T04:58:46.511Z,4.40
2023-02-22T05:01:15.376Z,4.50
2023-02-22T05:03:44.044Z,4.56
2023-02-22T05:06:11.025Z,4.62
2023-02-22T05:08:38.256Z,4.64
2023-02-22T05:11:05.792Z,4.68
2023-02-22T05:13:32.808Z,4.69
2023-02-22T05:16:01.590Z,4.70
2023-02-22T05:18:29.055Z,4.73
2023-02-22T05:20:56.300Z,4.74
2023-02-22T05:23:23.073Z,4.73
2023-02-22T05:25:49.881Z,4.75
2023-02-22T05:28:17.152Z,4.76
2023-02-22T05:30:44.428Z,4.76
2023-02-22T05:33:13.068Z,4.76
2023-02-22T05:35:40.090Z,4.74
2023-02-22T05:38:07.599Z,4.76
2023-02-22T05:40:34.786Z,4.76
2023-02-22T05:43:02.183Z,4.76
2023-02-22T05:45:30.046Z,4.77
2023-02-22T05:47:56.884Z,4.75
2023-02-22T05:50:26.276Z,4.77
2023-02-22T05:52:53.907Z,4.78
2023-02-22T05:55:23.524Z,4.81
2023-02-22T05:57:52.034Z,4.86
2023-02-22T06:00:22.329Z,4.82
2023-02-22T06:02:55.013Z,4.85
2023-02-22T06:05:22.043Z,4.87
2023-02-22T06:07:50.549Z,4.86
2023-02-22T06:10:18.061Z,4.87
2023-02-22T06:12:44.843Z,4.82
2023-02-22T06:15:11.797Z,4.83
2023-02-22T06:17:38.676Z,4.76
2023-02-22T06:20:06.615Z,4.78
2023-02-22T06:22:33.490Z,4.79
2023-02-22T06:25:03.405Z,4.83
2023-02-22T06:27:31.552Z,4.80
2023-02-22T06:30:00.586Z,4.83
2023-02-22T06:32:27.974Z,4.90
2023-02-22T06:34:54.916Z,4.98
2023-02-22T06:37:22.755Z,5.08
2023-02-22T06:39:49.618Z,5.31
2023-02-22T06:42:17.903Z,5.64
2023-02-22T06:44:44.787Z,5.76
2023-02-22T06:47:11.819Z,5.83
2023-02-22T06:49:38.625Z,5.98
2023-02-22T06:52:08.205Z,6.37
2023-02-22T06:54:35.612Z,6.66
2023-02-22T06:57:02.558Z,6.73
2023-02-22T06:59:30.855Z,6.79
2023-02-22T07:01:57.613Z,6.92
2023-02-22T07:04:25.087Z,7.06
2023-02-22T07:06:51.897Z,7.34
2023-02-22T07:09:18.882Z,7.97
2023-02-22T07:11:45.760Z,8.57
2023-02-22T07:14:12.634Z,8.72
2023-02-22T07:16:41.089Z,9.66
2023-02-22T07:19:07.935Z,10.20
2023-02-22T07:21:35.254Z,10.53
2023-02-22T07:24:03.992Z,10.46
2023-02-22T07:26:39.875Z,10.82
2023-02-22T07:29:12.148Z,11.09
2023-02-22T07:31:41.160Z,11.83
2023-02-22T07:34:08.099Z,12.02
2023-02-22T07:36:36.464Z,12.07
2023-02-22T07:39:03.484Z,12.15
2023-02-22T07:41:30.302Z,12.20
2023-02-22T07:43:57.372Z,11.77
2023-02-22T07:46:24.104Z,11.44
2023-02-22T07:48:52.251Z,11.56
2023-02-22T07:51:19.258Z,11.81
2023-02-22T07:53:46.281Z,10.76
2023-02-22T07:56:13.229Z,9.36
2023-02-22T07:58:40.529Z,10.07
2023-02-22T08:01:07.335Z,10.80
2023-02-22T08:03:35.165Z,11.56
2023-02-22T08:06:06.698Z,12.54
2023-02-22T08:08:33.808Z,13.10
2023-02-22T08:11:00.630Z,13.63
2023-02-22T08:13:27.747Z,14.04
2023-02-22T08:15:55.292Z,14.72
2023-02-22T08:18:25.116Z,14.71
2023-02-22T08:20:54.096Z,14.99
2023-02-22T08:23:25.474Z,15.10
2023-02-22T08:25:53.509Z,15.50
2023-02-22T08:28:24.167Z,15.61
2023-02-22T08:30:52.390Z,16.00
2023-02-22T08:33:20.153Z,16.47
2023-02-22T08:35:49.228Z,16.57
2023-02-22T08:38:20.895Z,16.09
2023-02-22T08:40:49.994Z,15.57
2023-02-22T08:43:17.538Z,15.08
2023-02-22T08:45:45.319Z,14.87
2023-02-22T08:48:12.632Z,14.69
2023-02-22T08:50:40.393Z,14.89
2023-02-22T08:53:09.132Z,14.58
2023-02-22T08:55:39.150Z,13.17
2023-02-22T08:58:08.741Z,12.17
2023-02-22T09:00:37.591Z,12.30
2023-02-22T09:03:07.810Z,12.76
2023-02-22T09:05:34.847Z,13.48
2023-02-22T09:08:02.084Z,13.91
2023-02-22T09:10:32.245Z,14.47
2023-02-22T09:13:01.379Z,14.93
2023-02-22T09:15:30.476Z,15.92
2023-02-22T09:17:57.724Z,16.32
2023-02-22T09:20:25.519Z,16.41
2023-02-22T09:22:53.720Z,16.66
2023-02-22T09:25:22.039Z,16.85
2023-02-22T09:27:51.259Z,16.78
2023-02-22T09:30:24.350Z,16.91
2023-02-22T09:32:55.789Z,17.47
2023-02-22T09:35:23.590Z,17.98
2023-02-22T09:37:51.318Z,18.12
2023-02-22T09:40:19.172Z,18.59
2023-02-22T09:43:07.279Z,18.69
2023-02-22T09:45:42.871Z,18.90
2023-02-22T09:48:22.100Z,19.33
2023-02-22T09:50:57.789Z,19.37
2023-02-22T09:53:31.986Z,19.26
2023-02-22T09:56:06.770Z,19.48
2023-02-22T09:58:41.824Z,19.34
2023-02-22T10:01:27.105Z,19.06
2023-02-22T10:04:06.044Z,18.98
2023-02-22T10:06:35.230Z,19.20
2023-02-22T10:09:04.024Z,19.25
2023-02-22T10:11:49.420Z,19.23
2023-02-22T10:14:48.701Z,18.91
2023-02-22T10:17:29.619Z,18.69
2023-02-22T10:20:21.740Z,18.65
2023-02-22T10:23:10.663Z,17.45
2023-02-22T10:25:42.105Z,17.54
2023-02-22T10:28:19.164Z,16.95
2023-02-22T10:30:51.282Z,16.52
2023-02-22T10:33:23.084Z,16.90
2023-02-22T10:35:54.003Z,16.85
2023-02-22T10:38:24.925Z,17.54
2023-02-22T10:41:00.777Z,17.75
2023-02-22T10:43:28.157Z,18.05
2023-02-22T10:46:02.552Z,18.46
2023-02-22T10:48:34.807Z,19.14
2023-02-22T10:51:08.101Z,19.46
2023-02-22T10:53:36.649Z,19.88
2023-02-22T10:56:14.641Z,20.22
2023-02-22T10:58:51.263Z,20.33
2023-02-22T11:01:22.069Z,19.97
2023-02-22T11:04:03.584Z,19.22
2023-02-22T11:06:34.591Z,20.12
2023-02-22T11:09:11.464Z,20.43
2023-02-22T11:11:41.467Z,20.70
2023-02-22T11:14:10.174Z,21.42
2023-02-22T11:16:42.445Z,21.56
2023-02-22T11:19:20.146Z,21.21
2023-02-22T11:21:51.726Z,21.42
2023-02-22T11:24:22.564Z,21.23
2023-02-22T11:26:56.610Z,21.53
2023-02-22T11:29:30.588Z,21.47
2023-02-22T11:32:04.242Z,20.83
2023-02-22T11:34:36.805Z,20.77
2023-02-22T11:37:29.356Z,20.70
2023-02-22T11:40:17.122Z,20.96
2023-02-22T11:42:44.053Z,20.87
2023-02-22T11:45:15.363Z,20.50
2023-02-22T11:47:54.207Z,20.45
2023-02-22T11:50:32.810Z,20.61
2023-02-22T11:53:21.885Z,20.57
2023-02-22T11:56:10.720Z,20.53
2023-02-22T11:58:48.280Z,21.34
2023-02-22T12:01:31.387Z,21.45
2023-02-22T12:04:50.878Z,21.52
2023-02-22T12:07:40.998Z,20.73
2023-02-22T12:10:23.764Z,19.98
2023-02-22T12:13:17.073Z,19.78
2023-02-22T12:15:54.652Z,19.68
2023-02-22T12:18:33.856Z,19.54
2023-02-22T12:21:07.292Z,19.42
2023-02-22T12:23:46.041Z,19.45
2023-02-22T12:26:25.184Z,19.36
2023-02-22T12:29:01.218Z,18.91
2023-02-22T12:31:32.859Z,18.78
2023-02-22T12:34:10.049Z,18.54
2023-02-22T12:36:45.336Z,17.75
2023-02-22T12:39:47.196Z,17.76
2023-02-22T12:42:29.424Z,17.85
2023-02-22T12:45:07.385Z,17.88
2023-02-22T12:47:47.554Z,17.82
2023-02-22T12:50:24.005Z,17.81
2023-02-22T12:52:59.545Z,17.83
2023-02-22T12:55:36.900Z,17.73
2023-02-22T12:58:17.655Z,17.69
2023-02-22T13:00:51.641Z,17.64
2023-02-22T13:03:34.572Z,17.62
2023-02-22T13:06:28.897Z,17.66
2023-02-22T13:09:26.069Z,17.58
2023-02-22T13:12:09.046Z,17.15
2023-02-22T13:14:51.466Z,17.10
2023-02-22T13:17:32.406Z,16.56
2023-02-22T13:20:05.651Z,16.44
2023-02-22T13:22:46.726Z,16.63
2023-02-22T13:25:19.218Z,15.78
2023-02-22T13:27:52.705Z,15.61
2023-02-22T13:30:35.103Z,16.13
2023-02-22T13:33:34.320Z,16.55
2023-02-22T13:36:17.423Z,16.87
2023-02-22T13:39:26.403Z,16.46
2023-02-22T13:42:14.655Z,16.36
2023-02-22T13:45:24.636Z,15.90
2023-02-22T13:48:35.205Z,16.24
2023-02-22T13:51:14.417Z,16.24
2023-02-22T13:53:52.769Z,16.31
2023-02-22T13:56:21.318Z,16.52
2023-02-22T13:58:52.189Z,16.72
2023-02-22T14:01:48.137Z,16.80
2023-02-22T14:04:45.614Z,16.86
2023-02-22T14:07:54.023Z,16.95
2023-02-22T14:10:45.887Z,16.99
2023-02-22T14:13:14.351Z,16.85
2023-02-22T14:16:20.687Z,16.85
2023-02-22T14:19:02.622Z,16.96
2023-02-22T14:21:31.199Z,16.97
2023-02-22T14:24:09.616Z,16.92
2023-02-22T14:26:39.503Z,16.77
2023-02-22T14:29:18.464Z,16.69
2023-02-22T14:32:05.143Z,16.61
2023-02-22T14:34:48.106Z,16.49
2023-02-22T14:37:21.020Z,16.43
2023-02-22T14:39:52.319Z,16.40
2023-02-22T14:42:31.401Z,16.35
2023-02-22T14:45:05.244Z,16.34
2023-02-22T14:47:43.582Z,16.33
2023-02-22T14:50:20.389Z,16.31
2023-02-22T14:53:01.433Z,16.29
2023-02-22T14:55:34.019Z,16.27
2023-02-22T14:58:09.727Z,16.16
2023-02-22T15:00:40.250Z,16.13
2023-02-22T15:03:24.911Z,16.08
2023-02-22T15:05:51.727Z,16.09
2023-02-22T15:08:19.893Z,16.08
2023-02-22T15:10:50.517Z,16.01
2023-02-22T15:13:23.159Z,15.96
2023-02-22T15:15:57.760Z,15.95
2023-02-22T15:18:33.247Z,15.99
2023-02-22T15:21:10.105Z,15.99
2023-02-22T15:23:46.819Z,15.96
2023-02-22T15:26:20.436Z,15.97
2023-02-22T15:28:48.273Z,15.95
2023-02-22T15:31:26.168Z,15.92
2023-02-22T15:33:54.044Z,15.90
2023-02-22T15:36:26.799Z,15.90
2023-02-22T15:38:55.423Z,15.86
2023-02-22T15:41:32.672Z,15.81
2023-02-22T15:44:21.269Z,15.80
2023-02-22T15:46:50.118Z,15.77
2023-02-22T15:49:23.088Z,15.71
2023-02-22T15:52:06.982Z,15.73
2023-02-22T15:54:44.478Z,15.69
2023-02-22T15:57:16.549Z,15.66
2023-02-22T15:59:51.222Z,15.58
2023-02-22T16:02:38.972Z,15.37
2023-02-22T16:05:10.276Z,15.37
2023-02-22T16:07:42.632Z,15.27
2023-02-22T16:10:31.196Z,15.25
2023-02-22T16:13:19.079Z,15.19
2023-02-22T16:16:02.674Z,15.13
2023-02-22T16:18:36.824Z,15.10
2023-02-22T16:21:10.223Z,15.05
2023-02-22T16:23:49.981Z,15.01
2023-02-22T16:26:28.097Z,14.97
2023-02-22T16:29:00.834Z,14.91
2023-02-22T16:31:30.512Z,14.88
2023-02-22T16:33:57.764Z,14.82
2023-02-22T16:36:39.020Z,14.74
2023-02-22T16:39:08.033Z,14.66
2023-02-22T16:41:36.284Z,14.61
2023-02-22T16:44:03.757Z,14.51
2023-02-22T16:46:30.606Z,14.46
2023-02-22T16:48:57.760Z,14.36
2023-02-22T16:51:28.709Z,14.28
2023-02-22T16:53:56.760Z,14.22
2023-02-22T16:56:31.027Z,14.15
2023-02-22T16:59:05.702Z,14.02
2023-02-22T17:04:26.338Z,13.88
2023-02-22T17:06:53.463Z,13.84
2023-02-22T17:09:20.448Z,13.79
2023-02-22T17:11:51.194Z,13.74
2023-02-22T17:14:23.002Z,13.67
2023-02-22T17:16:49.945Z,13.60
2023-02-22T17:19:21.012Z,13.53
2023-02-22T17:21:48.731Z,13.46
2023-02-22T17:24:19.889Z,13.39
2023-02-22T17:26:46.696Z,13.35
2023-02-22T17:29:13.706Z,13.29
2023-02-22T17:31:42.321Z,13.26
2023-02-22T17:34:09.850Z,13.21
2023-02-22T17:36:37.830Z,13.17
2023-02-22T17:39:05.765Z,13.12
2023-02-22T17:41:32.886Z,13.07
2023-02-22T17:43:59.868Z,12.74
2023-02-22T17:46:26.849Z,12.74
2023-02-22T17:48:55.404Z,12.71
2023-02-22T17:51:25.226Z,12.49
2023-02-22T17:53:52.134Z,12.39
2023-02-22T17:56:21.688Z,12.38
2023-02-22T17:58:53.444Z,12.22
2023-02-22T18:01:23.529Z,11.95
2023-02-22T18:03:51.074Z,11.61
2023-02-22T18:06:25.011Z,11.44
2023-02-22T18:08:55.794Z,11.44
2023-02-22T18:11:24.704Z,11.45
2023-02-22T18:13:52.105Z,11.50
2023-02-22T18:16:19.501Z,11.43
2023-02-22T18:18:46.457Z,11.28
2023-02-22T18:21:13.974Z,11.26
2023-02-22T18:23:43.166Z,11.18
2023-02-22T18:26:16.615Z,11.12
2023-02-22T18:28:45.379Z,11.07
2023-02-22T18:31:15.644Z,11.06
2023-02-22T18:33:43.296Z,11.02
2023-02-22T18:36:11.480Z,10.93
2023-02-22T18:38:53.024Z,10.95
2023-02-22T18:41:22.886Z,10.92
2023-02-22T18:43:49.674Z,10.84
2023-02-22T18:46:20.062Z,10.76
2023-02-22T18:48:48.914Z,10.68
2023-02-22T18:51:17.339Z,10.72
2023-02-22T18:53:47.166Z,10.76
2023-02-22T18:56:19.265Z,10.84
2023-02-22T18:58:47.581Z,10.85
2023-02-22T19:01:17.983Z,10.87
2023-02-22T19:03:45.466Z,10.82
2023-02-22T19:06:14.353Z,10.79
2023-02-22T19:08:43.489Z,10.81
2023-02-22T19:11:13.828Z,10.82
2023-02-22T19:13:42.043Z,10.86
2023-02-22T19:16:10.381Z,10.91
2023-02-22T19:18:37.662Z,11.02
2023-02-22T19:21:06.991Z,11.04
2023-02-22T19:23:35.372Z,10.96
2023-02-22T19:26:04.463Z,11.03
2023-02-22T19:28:31.456Z,11.08
2023-02-22T19:31:11.485Z,10.65
2023-02-22T19:33:39.014Z,10.73
2023-02-22T19:36:09.234Z,10.86
2023-02-22T19:38:36.387Z,10.70
2023-02-22T19:41:10.268Z,10.45
2023-02-22T19:43:37.483Z,10.23
2023-02-22T19:46:08.201Z,10.07
2023-02-22T19:48:44.225Z,10.03
2023-02-22T19:51:15.222Z,10.07
2023-02-22T19:53:43.785Z,10.10
2023-02-22T19:56:13.399Z,10.23
2023-02-22T19:58:44.893Z,10.41
2023-02-22T20:01:18.079Z,10.44
2023-02-22T20:03:45.353Z,10.43
2023-02-22T20:06:12.205Z,10.41
2023-02-22T20:08:42.558Z,10.54
2023-02-22T20:11:10.838Z,10.62
2023-02-22T20:13:38.888Z,10.68
2023-02-22T20:16:07.521Z,10.70
2023-02-22T20:18:36.187Z,10.72
2023-02-22T20:21:07.552Z,10.64
2023-02-22T20:23:34.523Z,10.61
2023-02-22T20:26:01.766Z,10.56
2023-02-22T20:28:28.859Z,10.60
2023-02-22T20:30:55.768Z,10.56
2023-02-22T20:33:23.190Z,10.55
2023-02-22T20:35:52.889Z,10.60
2023-02-22T20:38:19.824Z,10.65
2023-02-22T20:40:46.905Z,10.70
2023-02-22T20:47:17.289Z,10.66
2023-02-22T20:49:44.189Z,10.39
2023-02-22T20:52:13.026Z,10.12
2023-02-22T20:54:40.340Z,10.02
2023-02-22T20:57:07.251Z,9.98
2023-02-22T20:59:34.749Z,10.03
2023-02-22T21:02:02.567Z,10.13
2023-02-22T21:04:31.655Z,10.02
2023-02-22T21:06:59.159Z,10.17
2023-02-22T21:09:50.684Z,10.34
2023-02-22T21:12:17.833Z,10.45
2023-02-22T21:14:44.890Z,10.55
2023-02-22T21:17:11.772Z,10.50
2023-02-22T21:19:38.556Z,10.52
2023-02-22T21:22:05.384Z,10.49
2023-02-22T21:24:32.834Z,10.31
2023-02-22T21:27:01.630Z,10.02
2023-02-22T21:29:29.470Z,9.82
2023-02-22T21:31:56.709Z,9.78
2023-02-22T21:34:24.116Z,9.79
2023-02-22T21:36:51.479Z,9.86
2023-02-22T21:39:18.557Z,9.94
2023-02-22T21:41:47.909Z,9.98
2023-02-22T21:44:18.810Z,10.04
2023-02-22T21:46:45.894Z,10.10
2023-02-22T21:49:12.711Z,10.12
2023-02-22T21:51:39.790Z,10.14
2023-02-22T21:54:09.740Z,10.13
2023-02-22T21:56:39.665Z,10.12
2023-02-22T21:59:10.976Z,10.04
2023-02-22T22:01:43.782Z,9.95
2023-02-22T22:04:11.027Z,9.94
2023-02-22T22:06:37.873Z,10.02
2023-02-22T22:09:04.766Z,10.11
2023-02-22T22:11:31.537Z,10.17
2023-02-22T22:13:58.374Z,10.19
2023-02-22T22:16:27.142Z,10.19
2023-02-22T22:18:56.180Z,10.22
2023-02-22T22:21:24.466Z,10.24
2023-02-22T22:23:53.883Z,10.19
2023-02-22T22:26:23.229Z,10.17
2023-02-22T22:28:55.008Z,10.19
2023-02-22T22:31:24.511Z,10.21
2023-02-22T22:33:53.194Z,10.19
2023-02-22T22:36:23.822Z,10.01
2023-02-22T22:38:50.726Z,9.63
2023-02-22T22:41:20.256Z,9.74
2023-02-22T22:43:47.734Z,9.86
2023-02-22T22:46:17.398Z,9.91
2023-02-22T22:48:45.494Z,9.96
2023-02-22T22:51:15.513Z,10.00
2023-02-22T22:53:46.617Z,10.05
2023-02-22T22:56:17.755Z,10.08
2023-02-22T22:58:51.835Z,10.04
2023-02-22T23:01:22.360Z,10.05
2023-02-22T23:03:53.514Z,10.10
2023-02-22T23:06:22.646Z,10.15
2023-02-22T23:08:59.511Z,10.17
2023-02-22T23:11:28.703Z,10.17
2023-02-22T23:13:56.467Z,10.16
2023-02-22T23:16:24.442Z,10.14
2023-02-22T23:18:51.637Z,10.13
2023-02-22T23:21:19.802Z,10.12
2023-02-22T23:23:46.804Z,10.15
2023-02-22T23:26:15.034Z,10.17
2023-02-22T23:28:42.346Z,10.08
2023-02-22T23:31:12.893Z,10.09
2023-02-22T23:33:40.774Z,10.10
2023-02-22T23:36:08.885Z,10.03
2023-02-22T23:38:35.930Z,10.07
2023-02-22T23:41:04.230Z,10.11
2023-02-22T23:43:32.821Z,10.20
2023-02-22T23:46:05.993Z,10.16
2023-02-22T23:48:32.862Z,9.91
2023-02-22T23:51:05.214Z,9.87
2023-02-22T23:53:32.066Z,9.98
2023-02-22T23:56:01.026Z,10.09
2023-02-22T23:58:27.820Z,10.18
